createdAt,value
2023-02-09T00:01:58.375Z,2.10
2023-02-09T00:04:43.526Z,2.10
2023-02-09T00:07:29.144Z,2.10
2023-02-09T00:10:14.856Z,2.10
2023-02-09T00:13:18.429Z,2.00
2023-02-09T00:16:04.868Z,2.00
2023-02-09T00:18:49.972Z,2.00
2023-02-09T00:21:35.905Z,1.90
2023-02-09T00:24:24.169Z,2.00
2023-02-09T00:27:12.857Z,1.90
2023-02-09T00:29:59.181Z,1.90
2023-02-09T00:32:44.736Z,1.90
2023-02-09T00:35:30.606Z,1.90
2023-02-09T00:38:17.637Z,1.90
2023-02-09T00:41:03.783Z,1.90
2023-02-09T00:43:49.415Z,1.80
2023-02-09T00:46:34.825Z,1.90
2023-02-09T00:49:20.671Z,1.80
2023-02-09T00:52:07.461Z,1.80
2023-02-09T00:54:56.062Z,1.80
2023-02-09T00:57:41.482Z,1.80
2023-02-09T01:00:27.102Z,1.80
2023-02-09T01:03:12.682Z,1.80
2023-02-09T01:05:59.948Z,1.90
2023-02-09T01:08:46.322Z,1.90
2023-02-09T01:11:32.438Z,1.90
2023-02-09T01:14:17.985Z,1.90
2023-02-09T01:17:04.898Z,1.90
2023-02-09T01:19:54.651Z,1.90
2023-02-09T01:22:40.635Z,1.90
2023-02-09T01:25:25.844Z,1.80
2023-02-09T01:28:11.137Z,1.80
2023-02-09T01:30:56.727Z,1.80
2023-02-09T01:33:42.391Z,1.70
2023-02-09T01:36:29.279Z,1.70
2023-02-09T01:39:17.951Z,1.70
2023-02-09T01:42:04.881Z,1.60
2023-02-09T01:44:50.181Z,1.60
2023-02-09T01:47:46.410Z,1.70
2023-02-09T01:50:36.859Z,1.60
2023-02-09T01:53:22.823Z,1.60
2023-02-09T01:56:17.419Z,1.60
2023-02-09T01:59:03.028Z,1.60
2023-02-09T02:01:48.369Z,1.50
2023-02-09T02:04:36.753Z,1.50
2023-02-09T02:07:52.104Z,1.50
2023-02-09T02:10:37.780Z,1.50
2023-02-09T02:13:23.454Z,1.50
2023-02-09T02:16:45.952Z,1.40
2023-02-09T02:20:04.885Z,1.40
2023-02-09T02:22:59.071Z,1.40
2023-02-09T02:26:07.078Z,1.40
2023-02-09T02:29:20.047Z,1.50
2023-02-09T02:32:20.539Z,1.50
2023-02-09T02:35:19.914Z,1.60
2023-02-09T02:38:31.643Z,1.60
2023-02-09T02:42:02.024Z,1.70
2023-02-09T02:44:58.212Z,1.70
2023-02-09T02:47:50.201Z,1.70
2023-02-09T02:50:45.018Z,1.70
2023-02-09T02:53:34.046Z,1.70
2023-02-09T02:56:24.258Z,1.60
2023-02-09T02:59:16.005Z,1.60
2023-02-09T03:02:10.325Z,1.50
2023-02-09T03:04:58.240Z,1.50
2023-02-09T03:07:44.535Z,1.40
2023-02-09T03:10:37.336Z,1.40
2023-02-09T03:13:41.277Z,1.30
2023-02-09T03:16:37.164Z,1.30
2023-02-09T03:19:47.336Z,1.20
2023-02-09T03:22:38.752Z,1.10
2023-02-09T03:25:35.388Z,1.10
2023-02-09T03:28:32.220Z,1.00
2023-02-09T03:31:18.289Z,1.00
2023-02-09T03:34:04.965Z,1.00
2023-02-09T03:36:53.915Z,0.90
2023-02-09T03:39:39.495Z,0.90
2023-02-09T03:42:24.851Z,0.90
2023-02-09T03:45:10.228Z,0.90
2023-02-09T03:47:55.703Z,0.90
2023-02-09T03:50:41.511Z,0.90
2023-02-09T03:53:26.710Z,0.80
2023-02-09T03:56:12.141Z,0.90
2023-02-09T03:58:57.820Z,0.90
2023-02-09T04:01:43.122Z,0.90
2023-02-09T04:04:29.080Z,0.90
2023-02-09T04:07:17.843Z,0.90
2023-02-09T04:10:04.756Z,0.90
2023-02-09T04:12:50.230Z,0.90
2023-02-09T04:15:36.591Z,0.90
2023-02-09T04:18:24.673Z,0.90
2023-02-09T04:21:10.357Z,1.00
2023-02-09T04:23:58.310Z,1.00
2023-02-09T04:26:43.939Z,1.00
2023-02-09T04:29:29.408Z,1.00
2023-02-09T04:32:14.850Z,1.10
2023-02-09T04:35:00.230Z,1.10
2023-02-09T04:37:45.708Z,1.10
2023-02-09T04:40:36.918Z,1.10
2023-02-09T04:43:22.373Z,1.20
2023-02-09T04:46:15.814Z,1.20
2023-02-09T04:49:01.340Z,1.20
2023-02-09T04:51:46.797Z,1.30
2023-02-09T04:54:32.022Z,1.30
2023-02-09T04:57:36.055Z,1.30
2023-02-09T05:00:21.296Z,1.40
2023-02-09T05:03:07.042Z,1.40
2023-02-09T05:06:01.654Z,1.50
2023-02-09T05:08:47.355Z,1.50
2023-02-09T05:11:32.793Z,1.60
2023-02-09T05:14:21.864Z,1.60
2023-02-09T05:17:10.117Z,1.60
2023-02-09T05:19:55.295Z,1.70
2023-02-09T05:22:40.918Z,1.70
2023-02-09T05:25:26.308Z,1.70
2023-02-09T05:28:12.566Z,1.70
2023-02-09T05:30:58.332Z,1.70
2023-02-09T05:33:43.588Z,1.70
2023-02-09T05:36:29.256Z,1.70
2023-02-09T05:39:17.158Z,1.70
2023-02-09T05:42:17.671Z,1.60
2023-02-09T05:45:03.551Z,1.60
2023-02-09T05:47:48.908Z,1.60
2023-02-09T05:50:36.132Z,1.60
2023-02-09T05:53:25.547Z,1.60
2023-02-09T05:56:11.027Z,1.60
2023-02-09T05:58:56.575Z,1.60
2023-02-09T06:01:44.737Z,1.70
2023-02-09T06:04:30.457Z,1.70
2023-02-09T06:07:16.867Z,1.60
2023-02-09T06:10:02.171Z,1.60
2023-02-09T06:12:47.554Z,1.60
2023-02-09T06:15:33.496Z,1.60
2023-02-09T06:18:18.872Z,1.60
2023-02-09T06:21:07.128Z,1.60
2023-02-09T06:23:52.761Z,1.60
2023-02-09T06:26:38.505Z,1.50
2023-02-09T06:29:25.260Z,1.50
2023-02-09T06:32:10.936Z,1.50
2023-02-09T06:34:56.197Z,1.50
2023-02-09T06:37:41.736Z,1.50
2023-02-09T06:40:27.091Z,1.50
2023-02-09T06:43:12.795Z,1.50
2023-02-09T06:45:58.014Z,1.50
2023-02-09T06:48:45.645Z,1.50
2023-02-09T06:51:31.653Z,1.50
2023-02-09T06:54:28.511Z,1.40
2023-02-09T06:57:14.003Z,1.40
2023-02-09T06:59:59.485Z,1.30
2023-02-09T07:02:50.295Z,1.30
2023-02-09T07:05:50.607Z,1.30
2023-02-09T07:08:36.615Z,1.30
2023-02-09T07:11:21.932Z,1.30
2023-02-09T07:14:07.609Z,1.30
2023-02-09T07:16:53.561Z,1.30
2023-02-09T07:19:39.168Z,1.30
2023-02-09T07:22:28.124Z,1.30
2023-02-09T07:25:13.534Z,1.20
2023-02-09T07:28:02.391Z,1.30
2023-02-09T07:30:52.617Z,1.30
2023-02-09T07:33:38.764Z,1.40
2023-02-09T07:36:24.067Z,1.40
2023-02-09T07:39:09.596Z,1.50
2023-02-09T07:41:57.821Z,1.50
2023-02-09T07:44:48.740Z,1.60
2023-02-09T07:47:34.820Z,1.60
2023-02-09T07:50:20.288Z,1.60
2023-02-09T07:53:05.476Z,1.70
2023-02-09T07:55:51.105Z,1.70
2023-02-09T07:58:36.757Z,1.70
2023-02-09T08:01:25.721Z,1.80
2023-02-09T08:04:10.869Z,1.80
2023-02-09T08:07:00.277Z,1.90
2023-02-09T08:09:46.724Z,1.90
2023-02-09T08:12:51.269Z,2.00
2023-02-09T08:15:46.328Z,2.10
2023-02-09T08:18:40.307Z,2.10
2023-02-09T08:21:28.666Z,2.10
2023-02-09T08:24:15.920Z,2.20
2023-02-09T08:27:01.552Z,2.20
2023-02-09T08:29:48.959Z,2.30
2023-02-09T08:32:37.500Z,2.40
2023-02-09T08:35:22.767Z,2.40
2023-02-09T08:38:11.071Z,2.40
2023-02-09T08:40:56.424Z,2.50
2023-02-09T08:43:43.338Z,2.50
2023-02-09T08:46:29.039Z,2.60
2023-02-09T08:49:14.711Z,2.60
2023-02-09T08:52:00.165Z,2.70
2023-02-09T08:54:45.800Z,2.80
2023-02-09T08:57:43.098Z,2.80
2023-02-09T09:00:29.684Z,2.90
2023-02-09T09:03:17.443Z,3.00
2023-02-09T09:06:05.784Z,3.00
2023-02-09T09:08:51.881Z,3.10
2023-02-09T09:11:37.985Z,3.20
2023-02-09T09:14:23.711Z,3.30
2023-02-09T09:17:09.326Z,3.30
2023-02-09T09:19:56.246Z,3.40
2023-02-09T09:22:41.486Z,3.60
2023-02-09T09:25:27.135Z,3.60
2023-02-09T09:28:12.646Z,3.70
2023-02-09T09:31:02.087Z,3.80
2023-02-09T09:33:47.803Z,3.90
2023-02-09T09:36:33.345Z,4.00
2023-02-09T09:39:20.066Z,4.10
2023-02-09T09:42:06.214Z,4.30
2023-02-09T09:44:52.968Z,4.40
2023-02-09T09:47:40.791Z,4.50
2023-02-09T09:50:33.448Z,4.60
2023-02-09T09:53:35.106Z,4.60
2023-02-09T09:56:21.785Z,4.70
2023-02-09T09:59:16.639Z,4.90
2023-02-09T10:02:23.453Z,5.00
2023-02-09T10:05:20.781Z,5.00
2023-02-09T10:08:30.437Z,5.10
2023-02-09T10:11:24.973Z,5.20
2023-02-09T10:14:10.530Z,5.30
2023-02-09T10:16:56.130Z,5.40
2023-02-09T10:19:42.497Z,5.50
2023-02-09T10:22:27.965Z,5.50
2023-02-09T10:25:36.736Z,5.50
2023-02-09T10:28:25.289Z,5.70
2023-02-09T10:31:17.579Z,5.70
2023-02-09T10:34:13.990Z,5.80
2023-02-09T10:37:14.892Z,5.80
2023-02-09T10:40:12.823Z,5.80
2023-02-09T10:43:00.990Z,5.80
2023-02-09T10:45:52.529Z,5.90
2023-02-09T10:48:45.178Z,5.90
2023-02-09T10:51:35.320Z,6.00
2023-02-09T10:54:21.664Z,6.10
2023-02-09T10:57:30.562Z,6.10
2023-02-09T11:00:16.890Z,6.20
2023-02-09T11:03:02.225Z,6.30
2023-02-09T11:05:59.413Z,6.40
2023-02-09T11:09:03.189Z,6.50
2023-02-09T11:11:48.922Z,6.70
2023-02-09T11:14:35.817Z,6.80
2023-02-09T11:17:45.662Z,7.00
2023-02-09T11:20:40.477Z,7.10
2023-02-09T11:23:44.653Z,7.30
2023-02-09T11:26:53.511Z,7.50
2023-02-09T11:29:59.824Z,7.70
2023-02-09T11:32:52.600Z,7.70
2023-02-09T11:36:02.707Z,7.70
2023-02-09T11:38:52.992Z,7.90
2023-02-09T11:42:04.146Z,8.00
2023-02-09T11:45:06.770Z,8.10
2023-02-09T11:48:12.321Z,8.30
2023-02-09T11:51:12.857Z,8.40
2023-02-09T11:54:09.907Z,8.90
2023-02-09T11:57:01.775Z,9.20
2023-02-09T11:59:56.360Z,9.40
2023-02-09T12:02:58.547Z,9.60
2023-02-09T12:05:45.772Z,10.00
2023-02-09T12:08:45.877Z,10.20
2023-02-09T12:11:48.285Z,10.60
2023-02-09T12:14:39.431Z,11.20
2023-02-09T12:17:43.048Z,11.50
2023-02-09T12:20:47.610Z,11.90
2023-02-09T12:23:37.392Z,12.20
2023-02-09T12:26:41.718Z,12.30
2023-02-09T12:29:35.284Z,12.10
2023-02-09T12:32:43.203Z,11.90
2023-02-09T12:35:39.359Z,11.80
2023-02-09T12:38:25.166Z,11.70
2023-02-09T12:41:13.221Z,11.70
2023-02-09T12:44:10.902Z,11.70
2023-02-09T12:46:58.099Z,11.60
2023-02-09T12:49:46.705Z,11.40
2023-02-09T12:52:32.290Z,11.00
2023-02-09T12:55:22.291Z,10.60
2023-02-09T12:58:45.758Z,10.20
2023-02-09T13:02:08.453Z,9.90
2023-02-09T13:05:28.320Z,9.70
2023-02-09T13:08:21.930Z,9.50
2023-02-09T13:11:46.201Z,9.40
2023-02-09T13:14:32.197Z,9.10
2023-02-09T13:17:51.922Z,9.00
2023-02-09T13:21:00.138Z,8.90
2023-02-09T13:24:14.552Z,8.80
2023-02-09T13:27:00.233Z,8.70
2023-02-09T13:29:54.259Z,8.50
2023-02-09T13:33:19.354Z,8.50
2023-02-09T13:36:24.979Z,8.40
2023-02-09T13:39:25.916Z,8.40
2023-02-09T13:42:20.576Z,8.30
2023-02-09T13:45:18.510Z,8.30
2023-02-09T13:48:21.446Z,8.20
2023-02-09T13:51:23.609Z,8.20
2023-02-09T13:54:19.941Z,8.20
2023-02-09T13:57:31.538Z,8.10
2023-02-09T14:00:38.765Z,8.10
2023-02-09T14:03:28.405Z,8.10
2023-02-09T14:06:23.532Z,8.10
2023-02-09T14:09:15.712Z,8.10
2023-02-09T14:12:05.258Z,8.10
2023-02-09T14:15:15.211Z,8.00
2023-02-09T14:18:00.467Z,8.00
2023-02-09T14:21:02.517Z,8.00
2023-02-09T14:24:12.340Z,8.00
2023-02-09T14:27:27.473Z,8.10
2023-02-09T14:30:17.791Z,8.00
2023-02-09T14:33:04.094Z,8.00
2023-02-09T14:35:55.941Z,8.00
2023-02-09T14:38:47.765Z,8.10
2023-02-09T14:41:36.422Z,8.10
2023-02-09T14:44:22.703Z,8.10
2023-02-09T14:47:35.660Z,8.10
2023-02-09T14:50:26.673Z,8.20
2023-02-09T14:53:15.060Z,8.10
2023-02-09T14:56:00.767Z,8.20
2023-02-09T14:58:46.259Z,8.10
2023-02-09T15:01:32.472Z,8.10
2023-02-09T15:04:19.375Z,8.10
2023-02-09T15:07:07.500Z,8.10
2023-02-09T15:09:53.084Z,8.10
2023-02-09T15:12:38.496Z,8.20
2023-02-09T15:15:25.366Z,8.20
2023-02-09T15:18:19.228Z,8.10
2023-02-09T15:21:05.012Z,8.10
2023-02-09T15:23:50.437Z,8.20
2023-02-09T15:26:36.806Z,8.10
2023-02-09T15:29:22.502Z,8.10
2023-02-09T15:32:16.785Z,8.00
2023-02-09T15:35:05.764Z,8.10
2023-02-09T15:38:11.075Z,8.00
2023-02-09T15:41:15.748Z,8.00
2023-02-09T15:44:32.475Z,8.00
2023-02-09T15:47:36.466Z,8.00
2023-02-09T15:50:21.886Z,8.00
2023-02-09T15:53:10.672Z,8.00
2023-02-09T15:56:01.912Z,8.00
2023-02-09T15:58:51.548Z,8.00
2023-02-09T16:01:37.232Z,8.10
2023-02-09T16:04:23.114Z,8.10
2023-02-09T16:07:19.500Z,8.10
2023-02-09T16:10:07.447Z,8.10
2023-02-09T16:12:53.437Z,8.10
2023-02-09T16:15:39.056Z,8.10
2023-02-09T16:18:24.459Z,8.10
2023-02-09T16:21:19.877Z,8.00
2023-02-09T16:24:08.057Z,7.90
2023-02-09T16:26:53.720Z,7.90
2023-02-09T16:29:39.382Z,7.90
2023-02-09T16:32:31.039Z,7.90
2023-02-09T16:35:17.641Z,7.80
2023-02-09T16:38:03.104Z,7.80
2023-02-09T16:40:48.608Z,7.70
2023-02-09T16:43:34.259Z,7.70
2023-02-09T16:46:19.793Z,7.60
2023-02-09T16:49:05.273Z,7.60
2023-02-09T16:51:56.848Z,7.50
2023-02-09T16:54:55.918Z,7.50
2023-02-09T16:57:41.365Z,7.60
2023-02-09T17:00:29.426Z,7.60
2023-02-09T17:03:36.617Z,7.50
2023-02-09T17:06:24.301Z,7.40
2023-02-09T17:09:15.274Z,7.30
2023-02-09T17:12:00.598Z,7.40
2023-02-09T17:14:45.941Z,7.40
2023-02-09T17:17:31.664Z,7.40
2023-02-09T17:20:22.502Z,7.30
2023-02-09T17:23:10.240Z,7.30
2023-02-09T17:25:58.888Z,7.40
2023-02-09T17:28:47.936Z,7.40
2023-02-09T17:31:43.952Z,7.40
2023-02-09T17:34:36.622Z,7.40
2023-02-09T17:37:22.022Z,7.50
2023-02-09T17:40:08.989Z,7.50
2023-02-09T17:42:54.714Z,7.60
2023-02-09T17:45:40.359Z,7.60
2023-02-09T17:48:25.888Z,7.60
2023-02-09T17:51:20.734Z,7.50
2023-02-09T17:54:13.255Z,7.40
2023-02-09T17:56:58.967Z,7.30
2023-02-09T17:59:47.815Z,7.10
2023-02-09T18:02:33.332Z,7.00
2023-02-09T18:05:21.706Z,6.90
2023-02-09T18:08:08.530Z,6.90
2023-02-09T18:10:57.905Z,6.80
2023-02-09T18:13:44.005Z,6.70
2023-02-09T18:16:29.239Z,6.60
2023-02-09T18:19:18.748Z,6.60
2023-02-09T18:22:04.534Z,6.50
2023-02-09T18:24:50.746Z,6.40
2023-02-09T18:27:36.445Z,6.40
2023-02-09T18:30:25.865Z,6.30
2023-02-09T18:33:13.661Z,6.20
2023-02-09T18:35:59.028Z,6.20
2023-02-09T18:38:45.225Z,6.20
2023-02-09T18:41:30.895Z,6.10
2023-02-09T18:44:16.468Z,6.10
2023-02-09T18:47:02.397Z,6.00
2023-02-09T18:49:51.011Z,6.00
2023-02-09T18:52:47.719Z,6.00
2023-02-09T18:55:35.203Z,6.00
2023-02-09T18:58:20.819Z,6.00
2023-02-09T19:01:11.526Z,6.00
2023-02-09T19:03:56.816Z,5.90
2023-02-09T19:06:42.309Z,5.90
2023-02-09T19:09:27.934Z,5.90
2023-02-09T19:12:13.573Z,5.80
2023-02-09T19:14:58.806Z,5.80
2023-02-09T19:17:45.750Z,5.70
2023-02-09T19:20:35.190Z,5.70
2023-02-09T19:23:20.933Z,5.70
2023-02-09T19:26:06.258Z,5.60
2023-02-09T19:28:51.674Z,5.60
2023-02-09T19:31:37.805Z,5.60
2023-02-09T19:34:23.882Z,5.50
2023-02-09T19:37:12.222Z,5.50
2023-02-09T19:40:04.473Z,5.50
2023-02-09T19:42:49.845Z,5.40
2023-02-09T19:45:38.286Z,5.40
2023-02-09T19:48:23.917Z,5.40
2023-02-09T19:51:09.569Z,5.30
2023-02-09T19:53:55.361Z,5.30
2023-02-09T19:56:41.942Z,5.30
2023-02-09T19:59:27.412Z,5.20
2023-02-09T20:02:17.228Z,5.20
2023-02-09T20:05:02.582Z,5.20
2023-02-09T20:07:49.350Z,5.10
2023-02-09T20:10:35.285Z,5.10
2023-02-09T20:13:23.840Z,5.00
2023-02-09T20:16:13.793Z,5.00
2023-02-09T20:18:59.038Z,5.00
2023-02-09T20:21:44.642Z,5.00
2023-02-09T20:24:30.321Z,5.00
2023-02-09T20:27:19.284Z,5.00
2023-02-09T20:30:11.098Z,4.90
2023-02-09T20:32:56.855Z,4.90
2023-02-09T20:35:46.145Z,4.90
2023-02-09T20:38:31.817Z,4.90
2023-02-09T20:41:20.766Z,5.00
2023-02-09T20:44:28.469Z,5.00
2023-02-09T20:47:13.731Z,5.00
2023-02-09T20:50:01.274Z,5.00
2023-02-09T20:52:46.882Z,5.00
2023-02-09T20:55:32.456Z,5.00
2023-02-09T20:58:19.409Z,5.00
2023-02-09T21:01:06.192Z,5.00
2023-02-09T21:03:53.772Z,4.90
2023-02-09T21:06:39.696Z,4.90
2023-02-09T21:09:28.354Z,4.90
2023-02-09T21:12:14.145Z,4.80
2023-02-09T21:15:02.751Z,4.80
2023-02-09T21:17:48.981Z,4.90
2023-02-09T21:20:35.319Z,4.90
2023-02-09T21:23:20.869Z,4.90
2023-02-09T21:26:12.247Z,4.90
2023-02-09T21:29:07.254Z,4.90
2023-02-09T21:31:52.934Z,4.80
2023-02-09T21:34:38.815Z,4.80
2023-02-09T21:37:24.092Z,4.80
2023-02-09T21:40:12.091Z,4.70
2023-02-09T21:42:57.916Z,4.70
2023-02-09T21:45:43.771Z,4.70
2023-02-09T21:48:29.039Z,4.70
2023-02-09T21:51:14.487Z,4.70
2023-02-09T21:54:00.194Z,4.60
2023-02-09T21:56:45.750Z,4.60
2023-02-09T21:59:31.532Z,4.60
2023-02-09T22:02:18.766Z,4.60
2023-02-09T22:05:04.507Z,4.60
2023-02-09T22:07:50.297Z,4.60
2023-02-09T22:10:41.409Z,4.60
2023-02-09T22:13:27.294Z,4.60
2023-02-09T22:16:18.197Z,4.60
2023-02-09T22:19:06.603Z,4.60
2023-02-09T22:21:54.506Z,4.60
2023-02-09T22:24:39.986Z,4.60
2023-02-09T22:27:26.235Z,4.60
2023-02-09T22:30:11.825Z,4.60
2023-02-09T22:33:01.468Z,4.60
2023-02-09T22:35:47.550Z,4.60
2023-02-09T22:38:33.936Z,4.60
2023-02-09T22:41:24.380Z,4.70
2023-02-09T22:44:12.443Z,4.70
2023-02-09T22:46:57.771Z,4.70
2023-02-09T22:49:47.583Z,4.70
2023-02-09T22:52:33.252Z,4.70
2023-02-09T22:55:18.375Z,4.70
2023-02-09T22:58:04.184Z,4.80
2023-02-09T23:00:50.351Z,4.80
2023-02-09T23:03:39.756Z,4.80
2023-02-09T23:06:27.539Z,4.80
2023-02-09T23:09:16.083Z,4.80
2023-02-09T23:12:01.590Z,4.80
2023-02-09T23:14:49.016Z,4.70
2023-02-09T23:17:34.786Z,4.70
2023-02-09T23:20:21.554Z,4.70
2023-02-09T23:23:09.642Z,4.60
2023-02-09T23:25:55.182Z,4.60
2023-02-09T23:28:41.532Z,4.60
2023-02-09T23:31:27.506Z,4.60
2023-02-09T23:34:21.176Z,4.60
2023-02-09T23:37:18.052Z,4.60
2023-02-09T23:40:09.777Z,4.60
2023-02-09T23:42:55.068Z,4.60
2023-02-09T23:45:40.722Z,4.60
2023-02-09T23:48:26.046Z,4.60
2023-02-09T23:51:14.241Z,4.50
2023-02-09T23:54:02.484Z,4.50
2023-02-09T23:56:50.269Z,4.40
2023-02-09T23:59:35.885Z,4.40
